Latest Coastal Weather Observations for Cape Nelson

IDV60701

Issued at 12:32 pm EST Friday 22 September 2017 (issued every 10 minutes, with the page automatically refreshed every 10 minutes)

About coastal observations | Map of coastal stations | Coastal observations for VIC | Marine services | Other Formats
Station Details ID: 090184 Name: CAPE NELSON LIGHTHOUSE Lat: -38.43 Lon: 141.54 Height: 45.4 m
Data from the previous 72 hours. | See also: Recent months at Cape Nelson
Date/Time
EST
Temp
°C
Wind Pressure Rain since
9am
mm
Weather Cloud Vis
km
Sea
Height
m
Swell
Dir  Spd
kts
Gust
kts
hPa Trend Height
m
Period
s
Dir
22/12:30pm 16.1 SW 5 6 1005.5 - 0.0 - - - - - - -
22/12:00pm 17.6 NW 6 11 1005.7 - 0.0 - - - - - - -
22/11:30am 17.5 N 8 12 1005.8 - 0.0 - - - - - - -
22/11:00am 17.8 NNW 10 14 1006.6 - 0.0 - - - - - - -
22/10:30am 15.1 WSW 4 6 1007.2 - 0.0 - - - - - - -
22/10:00am 14.8 NNW 7 12 1007.8 - 0.0 - - - - - - -
22/09:30am 14.2 N 7 9 1008.1 - 0.0 - - - - - - -
22/09:00am 12.6 NNE 7 10 1007.9 - 0.0 - - - - - - -
22/08:30am 12.0 NE 8 11 1008.0 - 0.0 - - - - - - -
22/08:00am 10.9 NNE 9 13 1008.1 - 0.0 - - - - - - -
22/07:30am 9.7 NNE 8 11 1008.4 - 0.0 - - - - - - -
22/07:00am 8.1 NNE 6 8 1008.3 - 0.0 - - - - - - -
22/06:30am 7.6 NNE 5 7 1008.4 - 0.0 - - - - - - -
22/06:00am 7.4 N 7 8 1008.3 - 0.0 - - - - - - -
22/05:30am 7.5 N 7 9 1008.5 - 0.0 - - - - - - -
22/05:00am 7.5 N 7 9 1008.4 - 0.0 - - - - - - -
22/04:30am 7.5 N 6 7 1008.6 - 0.0 - - - - - - -
22/04:00am 7.5 N 7 8 1008.9 - 0.0 - - - - - - -
22/03:30am 7.2 N 5 6 1009.0 - 0.0 - - - - - - -
22/03:00am 7.4 NW 6 7 1009.3 - 0.0 - - - - - - -
22/02:30am 7.4 NNW 5 7 1009.7 - 0.0 - - - - - - -
22/02:00am 7.8 NNW 5 6 1009.9 - 0.0 - - - - - - -
22/01:30am 8.1 NNW 5 6 1010.5 - 0.0 - - - - - - -
22/01:00am 9.2 NNW 5 6 1010.6 - 0.0 - - - - - - -
22/12:30am 10.6 NW 4 8 1010.7 - 0.0 - - - - - - -
22/12:00am 11.8 W 8 10 1010.7 - 0.0 - - - - - - -
 
Date/Time
EST
Temp
°C
Wind Pressure Rain since
9am
mm
Weather Cloud Vis
km
Sea
Height
m
Swell
Dir  Spd
kts
Gust
kts
hPa Trend Height
m
Period
s
Dir
21/11:30pm 11.2 W 7 9 1011.1 - 0.0 - - - - - - -
21/11:00pm 11.3 W 7 10 1011.3 - 0.0 - - - - - - -
21/10:30pm 10.6 NW 4 6 1011.5 - 0.0 - - - - - - -
21/10:00pm 11.8 WNW 7 10 1011.7 - 0.0 - - - - - - -
21/09:30pm 12.1 W 8 11 1011.5 - 0.0 - - - - - - -
21/09:00pm 12.2 W 7 10 1011.5 - 0.0 - - - - - - -
21/08:30pm 12.3 W 8 11 1011.5 - 0.0 - - - - - - -
21/08:00pm 12.3 W 8 11 1011.2 - 0.0 - - - - - - -
21/07:30pm 12.4 W 8 12 1010.7 - 0.0 - - - - - - -
21/07:00pm 12.7 W 9 13 1010.6 - 0.0 - - - - - - -
21/06:30pm 12.7 W 9 13 1010.3 - 0.0 - - - - - - -
21/06:00pm 13.2 W 8 14 1010.2 - 0.0 - - - - - - -
21/05:30pm 13.3 W 10 15 1009.8 - 0.0 - - - - - - -
21/05:00pm 13.4 W 10 15 1009.6 - 0.0 - - - - - - -
21/04:30pm 13.5 W 10 16 1009.4 - 0.0 - - - - - - -
21/04:00pm 13.6 W 11 15 1009.0 - 0.0 - - - - - - -
21/03:30pm 13.4 W 8 13 1009.0 - 0.0 - - - - - - -
21/03:00pm 13.7 W 14 18 1009.0 - 0.0 - - - - - - -
21/02:30pm 13.7 W 14 17 1009.0 - 0.0 - - - - - - -
21/02:00pm 13.3 W 15 19 1008.7 - 0.0 - - - - - - -
21/01:30pm 13.9 W 12 18 1008.5 - 0.0 - - - - - - -
21/01:00pm 13.5 W 16 22 1008.4 - 0.0 - - - - - - -
21/12:30pm 13.2 W 15 21 1008.4 - 0.0 - - - - - - -
21/12:00pm 13.3 W 18 23 1008.4 - 0.0 - - - - - - -
21/11:30am 14.2 W 14 20 1008.0 - 0.0 - - - - - - -
21/11:00am 15.4 WNW 13 19 1007.9 - 0.0 - - - - - - -
21/10:30am 16.1 WNW 17 23 1007.7 - 0.0 - - - - - - -
21/10:00am 16.8 WNW 18 24 1007.5 - 0.0 - - - - - - -
21/09:30am 17.0 WNW 17 24 1007.3 - 0.0 - - - - - - -
21/09:00am 17.7 NW 15 21 1007.0 - 0.0 - - - - - - -
21/08:30am 16.6 NNW 14 20 1006.7 - 0.0 - - - - - - -
21/08:00am 15.2 NNW 14 21 1006.6 - 0.0 - - - - - - -
21/07:30am 15.3 NNW 14 20 1006.5 - 0.0 - - - - - - -
21/07:00am 15.9 NNW 16 29 1006.2 - 0.0 - - - - - - -
21/06:46am 15.7 NNW 16 26 1006.1 - 0.0 - - - - - - -
21/06:30am 15.4 NNW 15 21 1005.8 - 0.0 - - - - - - -
21/06:08am 15.3 N 18 29 1005.5 - 0.0 - - - - - - -
21/06:00am 15.8 N 18 27 1005.7 - 0.0 - - - - - - -
21/05:53am 15.6 NNW 15 27 1005.7 - 0.0 - - - - - - -
21/05:30am 15.2 NNW 15 23 1006.1 - 0.0 - - - - - - -
21/05:00am 15.6 NNW 16 27 1005.6 - 0.0 - - - - - - -
21/04:41am 15.7 N 17 29 1005.4 - 0.0 - - - - - - -
21/04:30am 15.8 N 17 25 1005.5 - 0.0 - - - - - - -
21/04:05am 15.8 N 18 28 1005.5 - 0.0 - - - - - - -
21/04:00am 15.8 N 18 26 1005.7 - 0.0 - - - - - - -
21/03:33am 15.5 N 18 30 1006.2 - 0.0 - - - - - - -
21/03:30am 15.3 N 18 26 1006.2 - 0.0 - - - - - - -
21/03:00am 14.9 N 17 28 1006.5 - 0.0 - - - - - - -
21/02:30am 14.8 N 19 31 1006.8 - 0.0 - - - - - - -
21/02:00am 14.9 N 20 30 1007.2 - 0.0 - - - - - - -
21/01:31am 14.4 N 17 27 1007.9 - 0.0 - - - - - - -
21/01:30am 14.3 N 17 25 1007.9 - 0.0 - - - - - - -
21/01:00am 14.1 N 14 22 1008.5 - 0.0 - - - - - - -
21/12:30am 14.0 N 14 23 1008.9 - 0.0 - - - - - - -
21/12:00am 14.0 NNE 14 20 1009.3 - 0.0 - - - - - - -
 
Date/Time
EST
Temp
°C
Wind Pressure Rain since
9am
mm
Weather Cloud Vis
km
Sea
Height
m
Swell
Dir  Spd
kts
Gust
kts
hPa Trend Height
m
Period
s
Dir
20/11:30pm 13.9 NNE 13 18 1010.0 - 0.0 - - - - - - -
20/11:00pm 13.6 NNE 12 16 1010.8 - 0.0 - - - - - - -
20/10:30pm 13.0 NNE 9 14 1011.2 - 0.0 - - - - - - -
20/10:00pm 13.2 NNE 9 12 1011.3 - 0.0 - - - - - - -
20/09:30pm 13.5 NNE 10 12 1011.7 - 0.0 - - - - - - -
20/09:00pm 13.1 NNE 9 11 1012.0 - 0.0 - - - - - - -
20/08:30pm 12.3 NNE 5 7 1012.3 - 0.0 - - - - - - -
20/08:00pm 12.9 NE 8 9 1011.8 - 0.0 - - - - - - -
20/07:30pm 12.8 NNE 5 6 1012.7 - 0.0 - - - - - - -
20/07:00pm 14.0 NNE 5 6 1012.8 - 0.0 - - - - - - -
20/06:30pm 15.0 NW 4 6 1013.0 - 0.0 - - - - - - -
20/06:00pm 15.8 NW 5 7 1012.7 - 0.0 - - - - - - -
20/05:30pm 16.6 NNE 6 11 1011.6 - 0.0 - - - - - - -
20/05:00pm 17.0 N 9 14 1011.8 - 0.0 - - - - - - -
20/04:30pm 17.4 N 5 7 1012.8 - 0.0 - - - - - - -
20/04:00pm 17.8 NNW 6 9 1012.8 - 0.0 - - - - - - -
20/03:30pm 17.9 NNW 9 14 1013.0 - 0.0 - - - - - - -
20/03:00pm 17.9 NNW 10 15 1013.3 - 0.0 - - - - - - -
20/02:30pm 18.3 NNW 10 15 1013.4 - 0.0 - - - - - - -
20/02:00pm 18.6 NW 11 17 1014.0 - 0.0 - - - - - - -
20/01:30pm 18.1 NNW 12 17 1014.3 - 0.0 - - - - - - -
20/01:00pm 18.3 NNW 13 22 1014.7 - 0.0 - - - - - - -
20/12:30pm 16.8 NNW 12 19 1015.4 - 0.0 - - - - - - -
20/12:00pm 16.6 NNW 15 21 1015.8 - 0.0 - - - - - - -
20/11:30am 15.2 NNW 14 21 1016.0 - 0.0 - - - - - - -
20/11:00am 16.3 NNW 12 19 1016.6 - 0.0 - - - - - - -
20/10:30am 15.1 NNW 14 22 1017.0 - 0.0 - - - - - - -
20/10:00am 13.8 NNW 13 19 1017.9 - 0.0 - - - - - - -
20/09:30am 13.2 NNW 8 13 1018.3 - 0.0 - - - - - - -
20/09:00am 11.4 NNW 10 15 1018.8 - 0.0 - - - - - - -
20/08:30am 10.4 NNW 9 13 1019.0 - 0.0 - - - - - - -
20/08:00am 9.1 NW 11 17 1019.6 - 0.0 - - - - - - -
20/07:30am 7.9 NNW 10 14 1019.0 - 0.0 - - - - - - -
20/07:00am 7.3 NNW 10 13 1018.7 - 0.0 - - - - - - -
20/06:30am 7.0 N 9 12 1018.8 - 0.0 - - - - - - -
20/06:00am 7.0 NNW 9 13 1018.7 - 0.0 - - - - - - -
20/05:30am 7.2 NNW 8 10 1018.9 - 0.0 - - - - - - -
20/05:00am 7.7 NNW 7 9 1019.0 - 0.0 - - - - - - -
20/04:30am 8.1 NNW 9 13 1019.3 - 0.0 - - - - - - -
20/04:00am 7.9 N 8 13 1018.9 - 0.0 - - - - - - -
20/03:30am 8.2 NNW 7 10 1019.4 - 0.0 - - - - - - -
20/03:00am 7.9 NNW 7 9 1019.7 - 0.0 - - - - - - -
20/02:30am 7.4 NNW 7 10 1020.1 - 0.0 - - - - - - -
20/02:00am 7.2 N 7 9 1020.0 - 0.0 - - - - - - -
20/01:30am 7.5 N 7 9 1020.1 - 0.0 - - - - - - -
20/01:00am 8.1 NNW 7 8 1020.4 - 0.0 - - - - - - -
20/12:30am 8.5 NNW 7 11 1020.5 - 0.0 - - - - - - -
20/12:00am 9.1 N 6 9 1020.7 - 0.0 - - - - - - -
 
Date/Time
EST
Temp
°C
Wind Pressure Rain since
9am
mm
Weather Cloud Vis
km
Sea
Height
m
Swell
Dir  Spd
kts
Gust
kts
hPa Trend Height
m
Period
s
Dir
19/11:30pm 9.9 NNW 7 10 1020.9 - 0.0 - - - - - - -
19/11:00pm 10.9 NW 7 12 1021.3 - 0.0 - - - - - - -
19/10:30pm 11.0 NNW 7 12 1021.4 - 0.0 - - - - - - -
19/10:00pm 11.4 NNW 7 11 1021.7 - 0.0 - - - - - - -
19/09:30pm 11.5 WNW 9 12 1021.7 - 0.0 - - - - - - -
19/09:00pm 11.5 WNW 10 15 1021.8 - 0.0 - - - - - - -
19/08:30pm 11.6 WNW 10 14 1021.8 - 0.0 - - - - - - -
19/08:00pm 11.6 WNW 11 16 1021.8 - 0.0 - - - - - - -
19/07:30pm 11.5 W 10 15 1021.8 - 0.0 - - - - - - -
19/07:00pm 11.5 W 9 13 1021.7 - 0.0 - - - - - - -
19/06:30pm 11.5 W 9 17 1021.7 - 0.0 - - - - - - -
19/06:00pm 11.3 W 10 16 1021.6 - 0.0 - - - - - - -
19/05:30pm 11.6 W 10 14 1021.5 - 0.0 - - - - - - -
19/05:00pm 12.0 W 10 15 1021.3 - 0.0 - - - - - - -
19/04:30pm 12.6 W 11 18 1021.1 - 0.0 - - - - - - -
19/04:00pm 12.1 W 11 19 1021.1 - 0.0 - - - - - - -
19/03:30pm 12.1 W 13 21 1021.2 - 0.0 - - - - - - -
19/03:00pm 13.1 WNW 13 17 1021.3 - 0.0 - - - - - - -
19/02:30pm 12.3 W 12 18 1021.3 - 0.0 - - - - - - -
19/02:00pm 12.1 W 14 20 1021.2 - 0.0 - - - - - - -
19/01:30pm 12.3 W 12 16 1021.3 - 0.0 - - - - - - -
19/01:00pm 11.8 NW 11 19 1021.5 - 0.0 - - - - - - -

Other Formats:

Comma delimited format used in spreadsheet applications
http://www.bom.gov.au/fwo/IDV60701/IDV60701.94826.axf

JavaScript Object Notation format (JSON) in row-major order
http://www.bom.gov.au/fwo/IDV60701/IDV60701.94826.json